Time;durP1;ratioP1;P1;durP2;ratioP2;P2;SDS_P1;SDS_P2;PMS_P1;PMS_P2;Temp;Humidity;BMP_temperature;BMP_pressure;BME280_temperature;BME280_humidity;BME280_pressure;Samples;Min_cycle;Max_cycle;Signal;HPM_P1;HPM_P2
2022/04/21 00:00:26;;;;;;;5.10;4.07;;;9.90;99.90;;;;;;5114967;28;20861;-71
2022/04/21 00:02:54;;;;;;;9.20;4.17;;;9.90;99.90;;;;;;5115254;28;20906;-70
2022/04/21 00:05:21;;;;;;;7.80;4.40;;;9.90;99.90;;;;;;5114013;28;20491;-70
2022/04/21 00:07:48;;;;;;;5.53;4.07;;;9.90;99.90;;;;;;5114407;28;20456;-70
2022/04/21 00:10:16;;;;;;;9.70;4.10;;;9.90;99.90;;;;;;5114156;28;20456;-70
2022/04/21 00:12:43;;;;;;;6.93;4.47;;;9.90;99.90;;;;;;5114400;28;20582;-70
2022/04/21 00:15:11;;;;;;;7.47;4.33;;;9.90;99.90;;;;;;5114998;28;20534;-70
2022/04/21 00:17:38;;;;;;;11.33;5.90;;;9.90;99.90;;;;;;5115554;28;20456;-71
2022/04/21 00:20:08;;;;;;;13.03;4.37;;;9.80;99.90;;;;;;5115317;28;20555;-70
2022/04/21 00:25:19;;;;;;;8.23;4.17;;;9.80;99.90;;;;;;5115187;28;20471;-70
2022/04/21 00:27:46;;;;;;;5.83;3.90;;;9.80;99.90;;;;;;5115468;28;20452;-70
2022/04/21 00:30:16;;;;;;;8.07;4.60;;;9.80;99.90;;;;;;5115357;28;20787;-71
2022/04/21 00:32:42;;;;;;;6.93;3.80;;;9.70;99.90;;;;;;5114902;28;20463;-70
2022/04/21 00:35:12;;;;;;;27.30;14.47;;;9.70;99.90;;;;;;5116473;28;20453;-70
2022/04/21 00:37:46;;;;;;;9.30;5.20;;;9.60;99.90;;;;;;5115141;28;20452;-70
2022/04/21 00:40:14;;;;;;;8.47;4.10;;;9.60;99.90;;;;;;5115166;28;20467;-70
2022/04/21 00:42:41;;;;;;;7.40;3.63;;;9.60;99.90;;;;;;5115326;28;20460;-70
2022/04/21 00:45:09;;;;;;;6.83;3.93;;;9.50;99.90;;;;;;5115070;28;20476;-70
2022/04/21 00:47:40;;;;;;;12.47;4.07;;;9.50;99.90;;;;;;5115217;28;20835;-71
2022/04/21 00:50:09;;;;;;;8.77;3.97;;;9.50;99.90;;;;;;5114712;28;20901;-70
2022/04/21 00:52:37;;;;;;;7.40;4.40;;;9.50;99.90;;;;;;5115046;28;20457;-69
2022/04/21 00:55:04;;;;;;;6.13;3.93;;;9.40;99.90;;;;;;5114756;28;20452;-71
2022/04/21 00:57:31;;;;;;;8.17;4.60;;;9.40;99.90;;;;;;5114912;28;20456;-69
2022/04/21 00:59:58;;;;;;;11.57;4.43;;;9.40;99.90;;;;;;5116338;28;20460;-71
2022/04/21 01:05:11;;;;;;;7.60;4.53;;;9.30;99.90;;;;;;5119005;28;20459;-69
2022/04/21 01:07:39;;;;;;;6.20;4.70;;;9.30;99.90;;;;;;5118857;28;20467;-70
2022/04/21 01:10:06;;;;;;;6.77;4.60;;;9.30;99.90;;;;;;5119120;28;20811;-70
2022/04/21 01:12:33;;;;;;;7.80;4.67;;;9.20;99.90;;;;;;5119021;28;20499;-71
2022/04/21 01:15:00;;;;;;;7.33;4.40;;;9.10;99.90;;;;;;5118686;28;20456;-69
2022/04/21 01:17:34;;;;;;;9.07;4.47;;;9.10;99.90;;;;;;5118869;28;20801;-69
2022/04/21 01:20:01;;;;;;;8.90;4.60;;;9.20;99.90;;;;;;5118726;28;20516;-69
2022/04/21 01:22:29;;;;;;;10.63;4.67;;;9.20;99.90;;;;;;5118481;28;20478;-70
2022/04/21 01:24:56;;;;;;;9.43;4.40;;;9.20;99.90;;;;;;5118724;28;20940;-70
2022/04/21 01:27:26;;;;;;;7.57;4.33;;;9.20;99.90;;;;;;5118547;28;20484;-70
2022/04/21 01:29:53;;;;;;;9.43;4.30;;;9.20;99.90;;;;;;5118292;28;20904;-70
2022/04/21 01:32:20;;;;;;;11.97;4.10;;;9.20;99.90;;;;;;5118502;28;20460;-72
2022/04/21 01:34:46;;;;;;;9.90;4.43;;;9.20;99.90;;;;;;5119201;28;20460;-69
2022/04/21 01:42:43;;;;;;;6.27;4.03;;;9.20;99.90;;;;;;5118314;28;20420;-69
2022/04/21 01:45:10;;;;;;;9.63;4.63;;;9.10;99.90;;;;;;5118180;28;20456;-70
2022/04/21 01:47:37;;;;;;;9.70;4.43;;;9.10;99.90;;;;;;5118573;28;20496;-70
2022/04/21 01:50:07;;;;;;;9.07;4.07;;;9.10;99.90;;;;;;5118013;28;20459;-70
2022/04/21 01:52:35;;;;;;;11.43;4.60;;;9.00;99.90;;;;;;5118209;28;20521;-69
2022/04/21 01:55:03;;;;;;;7.53;4.90;;;9.10;99.90;;;;;;5118015;28;20932;-69
2022/04/21 01:57:30;;;;;;;7.53;4.67;;;9.10;99.90;;;;;;5118077;28;20441;-70
2022/04/21 01:59:57;;;;;;;5.23;4.67;;;9.10;99.90;;;;;;5117925;28;20449;-71
2022/04/21 02:02:23;;;;;;;10.57;6.23;;;9.10;99.90;;;;;;5117915;28;20460;-69
2022/04/21 02:04:50;;;;;;;6.50;4.77;;;9.10;99.90;;;;;;5117948;28;20543;-69
2022/04/21 02:07:17;;;;;;;9.00;5.03;;;9.10;99.90;;;;;;5117694;28;20499;-70
2022/04/21 02:09:44;;;;;;;6.20;4.67;;;9.20;99.90;;;;;;5117721;28;20913;-71
2022/04/21 02:12:12;;;;;;;8.33;3.73;;;9.10;99.90;;;;;;5116308;28;20467;-69
2022/04/21 02:14:38;;;;;;;6.60;4.40;;;9.20;99.90;;;;;;5117864;28;20456;-69
2022/04/21 02:17:06;;;;;;;8.20;4.90;;;9.10;99.90;;;;;;5117757;28;20461;-69
2022/04/21 02:19:33;;;;;;;11.23;4.83;;;9.10;99.90;;;;;;5118115;28;20452;-70
2022/04/21 02:22:00;;;;;;;9.23;4.50;;;9.10;99.90;;;;;;5117982;28;20785;-70
2022/04/21 02:24:26;;;;;;;7.73;5.13;;;9.10;99.90;;;;;;5117943;28;20521;-70
2022/04/21 02:26:53;;;;;;;7.90;4.53;;;9.10;99.90;;;;;;5117816;28;20480;-71
2022/04/21 02:29:21;;;;;;;9.67;5.53;;;9.10;99.90;;;;;;5117019;28;20463;-70
2022/04/21 02:31:48;;;;;;;12.37;4.83;;;9.10;99.90;;;;;;5117861;28;20457;-71
2022/04/21 02:34:15;;;;;;;6.73;3.97;;;9.10;99.90;;;;;;5117027;28;20456;-69
2022/04/21 02:36:41;;;;;;;5.27;4.07;;;9.10;99.90;;;;;;5117464;28;20453;-69
2022/04/21 02:39:08;;;;;;;6.97;5.10;;;9.10;99.90;;;;;;5117280;28;20453;-70
2022/04/21 02:41:35;;;;;;;10.60;5.20;;;9.10;99.90;;;;;;5116724;28;20873;-71
2022/04/21 02:44:01;;;;;;;8.83;4.50;;;9.10;99.90;;;;;;5117071;28;20782;-70
2022/04/21 02:46:31;;;;;;;7.27;4.10;;;9.10;99.90;;;;;;5117037;28;20483;-70
2022/04/21 02:48:58;;;;;;;8.10;5.30;;;9.00;99.90;;;;;;5117504;28;20776;-70
2022/04/21 02:51:25;;;;;;;6.27;4.63;;;9.10;99.90;;;;;;5116931;28;20460;-70
2022/04/21 02:59:20;;;;;;;9.80;4.80;;;9.10;99.90;;;;;;5085593;28;20547;-70
2022/04/21 03:01:48;;;;;;;7.43;4.40;;;9.10;99.90;;;;;;5116443;28;20453;-69
2022/04/21 03:04:15;;;;;;;13.93;4.97;;;9.10;99.90;;;;;;5116808;28;20460;-69
2022/04/21 03:06:41;;;;;;;8.50;4.10;;;9.10;99.90;;;;;;5116434;28;20484;-70
2022/04/21 03:09:08;;;;;;;6.67;4.57;;;9.00;99.90;;;;;;5116699;28;20456;-69
2022/04/21 03:11:35;;;;;;;6.07;4.47;;;9.00;99.90;;;;;;5116650;28;20460;-70
2022/04/21 03:14:01;;;;;;;5.80;4.57;;;9.00;99.90;;;;;;5116657;28;20456;-69
2022/04/21 03:16:28;;;;;;;7.90;5.23;;;9.00;99.90;;;;;;5116521;28;20461;-70
2022/04/21 03:18:56;;;;;;;10.63;4.70;;;9.00;99.90;;;;;;5116451;28;20482;-69
2022/04/21 03:24:22;;;;;;;9.40;4.30;;;9.00;99.90;;;;;;5116146;28;20805;-70
2022/04/21 03:26:49;;;;;;;9.03;4.70;;;9.00;99.90;;;;;;5116546;28;20483;-70
2022/04/21 03:29:16;;;;;;;12.73;5.10;;;9.00;99.90;;;;;;5116170;28;20452;-70
2022/04/21 03:31:43;;;;;;;11.50;5.97;;;9.00;99.90;;;;;;5116152;28;20517;-70
2022/04/21 03:34:14;;;;;;;8.20;5.57;;;9.00;99.90;;;;;;5116252;28;20457;-70
2022/04/21 03:36:45;;;;;;;8.40;4.90;;;9.00;99.90;;;;;;5116504;28;20783;-70
2022/04/21 03:39:11;;;;;;;6.57;4.60;;;9.10;99.90;;;;;;5116901;28;20483;-70
2022/04/21 03:41:38;;;;;;;10.00;5.27;;;9.10;99.90;;;;;;5116188;28;20908;-70
2022/04/21 03:44:05;;;;;;;8.97;5.50;;;9.10;99.90;;;;;;5115894;28;20488;-69
2022/04/21 03:46:32;;;;;;;8.43;4.90;;;9.00;99.90;;;;;;5115999;28;20495;-69
2022/04/21 03:48:59;;;;;;;11.10;4.93;;;9.10;99.90;;;;;;5115930;28;20468;-69
2022/04/21 03:51:27;;;;;;;10.60;5.10;;;9.10;99.90;;;;;;5115535;28;20482;-69
2022/04/21 03:53:54;;;;;;;9.73;4.83;;;9.00;99.90;;;;;;5115884;28;20456;-70
2022/04/21 03:56:21;;;;;;;8.27;5.37;;;9.00;99.90;;;;;;5115569;28;20526;-69
2022/04/21 03:58:48;;;;;;;5.80;5.20;;;9.00;99.90;;;;;;5115522;28;20452;-70
2022/04/21 04:01:15;;;;;;;11.23;5.40;;;9.00;99.90;;;;;;5115604;28;20485;-69
2022/04/21 04:03:42;;;;;;;10.27;5.40;;;9.00;99.90;;;;;;5115481;28;20924;-70
2022/04/21 04:10:51;;;;;;;8.83;4.77;;;9.00;99.90;;;;;;5115516;28;20508;-70
2022/04/21 04:11:42;;;;;;;8.30;5.40;;;9.00;99.90;;;;;;5115768;28;20523;-70
2022/04/21 04:14:09;;;;;;;6.57;4.90;;;9.00;99.90;;;;;;5115503;28;20964;-69
2022/04/21 04:16:36;;;;;;;12.00;5.63;;;9.00;99.90;;;;;;5115374;28;20452;-69
2022/04/21 04:19:05;;;;;;;10.83;5.50;;;9.00;99.90;;;;;;5115720;28;20543;-70
2022/04/21 04:21:31;;;;;;;11.00;5.87;;;9.00;99.90;;;;;;5115498;28;20502;-70
2022/04/21 04:24:00;;;;;;;14.30;5.77;;;8.90;99.90;;;;;;5114944;28;20469;-70
2022/04/21 04:26:26;;;;;;;12.17;5.80;;;8.90;99.90;;;;;;5115484;28;20491;-70
2022/04/21 04:28:53;;;;;;;8.50;5.57;;;8.90;99.90;;;;;;5115075;28;20924;-70
2022/04/21 04:31:20;;;;;;;10.07;5.23;;;8.90;99.90;;;;;;5115776;28;20765;-70
2022/04/21 04:33:46;;;;;;;9.50;6.23;;;8.90;99.90;;;;;;5114736;28;20460;-69
2022/04/21 04:36:16;;;;;;;11.87;6.03;;;8.90;99.90;;;;;;5114630;28;20460;-71
2022/04/21 04:38:43;;;;;;;10.53;5.80;;;9.00;99.90;;;;;;5115186;28;20468;-70
2022/04/21 04:43:55;;;;;;;42.37;26.37;;;9.10;99.90;;;;;;5114927;28;20424;-70
2022/04/21 04:46:37;;;;;;;23.63;16.93;;;9.10;99.90;;;;;;5114782;28;20468;-70
2022/04/21 04:49:06;;;;;;;12.70;5.20;;;9.10;99.90;;;;;;5114774;28;20441;-70
2022/04/21 04:51:34;;;;;;;6.90;5.43;;;9.20;99.90;;;;;;5114923;28;20781;-70
2022/04/21 04:54:06;;;;;;;14.47;5.97;;;9.10;99.90;;;;;;5114628;28;20812;-70
2022/04/21 04:56:34;;;;;;;8.77;6.37;;;9.10;99.90;;;;;;5114441;28;20472;-70
2022/04/21 04:59:01;;;;;;;12.00;6.53;;;9.10;99.90;;;;;;5114818;28;20497;-69
2022/04/21 05:01:31;;;;;;;10.00;5.40;;;9.10;99.90;;;;;;5114771;28;20471;-71
2022/04/21 05:04:02;;;;;;;8.70;5.23;;;9.10;99.90;;;;;;5114656;28;20456;-71
2022/04/21 05:06:29;;;;;;;9.90;6.00;;;9.10;99.90;;;;;;5114382;28;20480;-70
2022/04/21 05:08:58;;;;;;;12.93;6.73;;;9.10;99.90;;;;;;5114695;28;20476;-69
2022/04/21 05:11:25;;;;;;;11.20;6.60;;;9.10;99.90;;;;;;5114870;28;20484;-69
2022/04/21 05:13:54;;;;;;;7.40;6.00;;;9.10;99.90;;;;;;5114579;28;20456;-70
2022/04/21 05:16:21;;;;;;;7.60;5.60;;;9.00;99.90;;;;;;5114652;28;20448;-70
2022/04/21 05:18:48;;;;;;;15.10;5.17;;;9.10;99.90;;;;;;5114713;28;20463;-70
2022/04/21 05:21:16;;;;;;;8.00;5.40;;;9.10;99.90;;;;;;5114415;28;20456;-69
2022/04/21 05:23:46;;;;;;;9.53;6.27;;;9.10;99.90;;;;;;5113824;28;20928;-70
2022/04/21 05:26:13;;;;;;;17.50;9.97;;;9.10;99.90;;;;;;5114558;28;20793;-70
2022/04/21 05:28:40;;;;;;;9.20;5.87;;;9.20;99.90;;;;;;5114151;28;20515;-70
2022/04/21 05:31:08;;;;;;;11.63;5.57;;;9.20;99.90;;;;;;5114207;28;20529;-70
2022/04/21 05:33:37;;;;;;;9.27;6.20;;;9.30;99.90;;;;;;5114411;28;20510;-70
2022/04/21 05:36:06;;;;;;;39.43;25.40;;;9.20;99.90;;;;;;5114293;28;20471;-70
2022/04/21 05:38:33;;;;;;;9.93;6.70;;;9.30;99.90;;;;;;5114014;28;20467;-70
2022/04/21 05:41:00;;;;;;;12.03;5.57;;;9.30;99.90;;;;;;5114203;28;20483;-69
2022/04/21 05:43:30;;;;;;;9.67;5.87;;;9.30;99.90;;;;;;5114262;28;20465;-69
2022/04/21 05:45:58;;;;;;;7.83;5.70;;;9.30;99.90;;;;;;5115331;28;20559;-69
2022/04/21 05:48:26;;;;;;;7.97;5.73;;;9.30;99.90;;;;;;5118183;28;20810;-69
2022/04/21 05:50:53;;;;;;;12.30;5.60;;;9.30;99.90;;;;;;5118002;28;20452;-70
2022/04/21 05:53:22;;;;;;;9.77;5.43;;;9.30;99.90;;;;;;5117615;28;20460;-70
2022/04/21 05:55:50;;;;;;;9.63;5.57;;;9.30;99.90;;;;;;5118366;28;20529;-70
2022/04/21 05:58:17;;;;;;;9.60;5.83;;;9.30;99.90;;;;;;5119166;28;20476;-70
2022/04/21 06:00:43;;;;;;;9.80;5.60;;;9.30;99.90;;;;;;5118658;28;20509;-71
2022/04/21 06:03:11;;;;;;;13.60;6.20;;;9.30;99.90;;;;;;5119529;28;20456;-71
2022/04/21 06:05:39;;;;;;;7.57;5.10;;;9.30;99.90;;;;;;5118822;28;20964;-70
2022/04/21 06:08:07;;;;;;;11.87;5.20;;;9.40;99.90;;;;;;5117696;28;20480;-71
2022/04/21 06:10:33;;;;;;;17.23;7.73;;;9.30;99.90;;;;;;5117474;28;20453;-70
2022/04/21 06:13:02;;;;;;;6.17;5.50;;;9.30;99.90;;;;;;5117410;28;20467;-70
2022/04/21 06:15:31;;;;;;;9.00;5.80;;;9.40;99.90;;;;;;5118053;28;20510;-70
2022/04/21 06:17:58;;;;;;;11.33;5.30;;;9.40;99.90;;;;;;5117590;28;20495;-70
2022/04/21 06:20:25;;;;;;;13.30;6.03;;;9.40;99.90;;;;;;5117165;28;20456;-70
2022/04/21 06:22:53;;;;;;;10.60;5.93;;;9.40;99.90;;;;;;5117220;28;20456;-70
2022/04/21 06:25:21;;;;;;;9.50;5.67;;;9.40;99.90;;;;;;5117321;28;20492;-71
2022/04/21 06:27:47;;;;;;;13.10;5.60;;;9.50;99.90;;;;;;5117147;28;20476;-68
2022/04/21 06:30:14;;;;;;;8.63;6.40;;;9.50;99.90;;;;;;5117106;28;20452;-69
2022/04/21 06:32:41;;;;;;;7.83;5.20;;;9.50;99.90;;;;;;5116961;28;20936;-70
2022/04/21 06:35:09;;;;;;;9.23;5.67;;;9.50;99.90;;;;;;5116977;28;20555;-70
2022/04/21 06:37:35;;;;;;;13.67;5.60;;;9.50;99.90;;;;;;5116620;28;20452;-70
2022/04/21 06:40:04;;;;;;;6.43;4.90;;;9.60;99.90;;;;;;5117799;28;20467;-69
2022/04/21 06:42:31;;;;;;;8.50;5.60;;;9.70;99.90;;;;;;5117452;28;20559;-70
2022/04/21 06:50:26;;;;;;;9.20;5.60;;;10.00;99.90;;;;;;5116494;28;20439;-70
2022/04/21 06:52:53;;;;;;;12.83;5.57;;;10.10;99.90;;;;;;5116393;28;20786;-70
2022/04/21 06:55:21;;;;;;;13.17;5.17;;;10.20;99.90;;;;;;5116690;28;20488;-70
2022/04/21 06:57:48;;;;;;;8.40;5.40;;;10.30;99.90;;;;;;5115430;28;20443;-70
2022/04/21 07:00:15;;;;;;;10.20;5.00;;;10.40;99.90;;;;;;5115941;28;20513;-70
2022/04/21 07:02:42;;;;;;;11.07;5.17;;;10.40;99.90;;;;;;5116143;28;20456;-69
2022/04/21 07:05:11;;;;;;;8.13;4.40;;;10.50;99.90;;;;;;5116450;28;20464;-70
2022/04/21 07:07:39;;;;;;;17.70;8.90;;;10.50;99.90;;;;;;5116841;28;20898;-70
2022/04/21 07:10:06;;;;;;;20.70;13.13;;;10.50;99.90;;;;;;5115919;28;20456;-70
2022/04/21 07:12:35;;;;;;;22.57;8.10;;;10.50;99.90;;;;;;5116371;28;20470;-70
2022/04/21 07:15:04;;;;;;;7.57;4.97;;;10.50;99.90;;;;;;5115506;28;20456;-70
2022/04/21 07:17:31;;;;;;;10.27;4.87;;;10.50;99.90;;;;;;5115949;28;20448;-70
2022/04/21 07:19:58;;;;;;;10.40;6.30;;;10.50;99.90;;;;;;5115964;28;20448;-70
2022/04/21 07:22:25;;;;;;;10.60;7.50;;;10.50;99.90;;;;;;5115660;28;20486;-70
2022/04/21 07:24:52;;;;;;;10.63;5.17;;;10.50;99.90;;;;;;5116101;28;20452;-70
2022/04/21 07:27:19;;;;;;;12.20;6.10;;;10.60;99.90;;;;;;5116204;28;20480;-71
2022/04/21 07:29:47;;;;;;;9.93;4.80;;;10.60;99.90;;;;;;5116215;28;20457;-70
2022/04/21 07:32:14;;;;;;;6.43;4.53;;;10.70;99.90;;;;;;5116157;28;20456;-70
2022/04/21 07:34:41;;;;;;;11.40;6.40;;;10.80;99.90;;;;;;5116162;28;20542;-70
2022/04/21 07:37:09;;;;;;;9.13;5.30;;;10.80;99.90;;;;;;5116375;28;20572;-70
2022/04/21 07:39:36;;;;;;;8.80;5.03;;;10.90;99.90;;;;;;5115790;28;20530;-70
2022/04/21 07:42:03;;;;;;;7.67;5.90;;;10.80;99.90;;;;;;5114895;28;20985;-71
2022/04/21 07:44:30;;;;;;;8.93;5.13;;;10.80;99.90;;;;;;5115832;28;20464;-71
2022/04/21 07:46:58;;;;;;;8.93;5.00;;;10.80;99.90;;;;;;5116050;28;20812;-71
2022/04/21 07:54:54;;;;;;;13.83;5.97;;;10.90;99.90;;;;;;5115108;28;20432;-71
2022/04/21 07:57:21;;;;;;;10.37;5.30;;;11.00;99.90;;;;;;5115295;28;20448;-69
2022/04/21 07:59:48;;;;;;;8.90;5.40;;;11.00;99.90;;;;;;5114944;28;20463;-70
2022/04/21 08:02:16;;;;;;;11.90;5.30;;;11.10;99.90;;;;;;5114985;28;20784;-71
2022/04/21 08:04:43;;;;;;;8.50;5.10;;;11.10;99.90;;;;;;5114842;28;20460;-71
2022/04/21 08:07:10;;;;;;;13.20;8.03;;;11.10;99.90;;;;;;5115021;28;20491;-71
2022/04/21 08:09:37;;;;;;;11.40;8.20;;;11.10;99.90;;;;;;5115201;28;20534;-71
2022/04/21 08:12:04;;;;;;;8.50;6.53;;;11.10;99.90;;;;;;5114869;28;20460;-71
2022/04/21 08:14:30;;;;;;;10.10;6.20;;;11.10;99.90;;;;;;5114807;28;20456;-70
2022/04/21 08:16:57;;;;;;;12.27;6.07;;;11.20;99.90;;;;;;5115013;28;20784;-70
2022/04/21 08:19:25;;;;;;;10.33;7.40;;;11.20;99.90;;;;;;5114995;28;20452;-70
2022/04/21 08:21:52;;;;;;;10.87;6.47;;;11.20;99.90;;;;;;5114914;28;20766;-70
2022/04/21 08:32:40;;;;;;;7.20;5.57;;;11.60;99.90;;;;;;5114635;28;20431;-70
2022/04/21 08:35:09;;;;;;;29.40;10.13;;;11.70;99.90;;;;;;5114316;28;20773;-71
2022/04/21 08:37:36;;;;;;;16.60;7.87;;;11.70;99.90;;;;;;5114417;28;20525;-70
2022/04/21 08:40:04;;;;;;;29.17;9.13;;;11.80;99.90;;;;;;5114483;28;20464;-70
2022/04/21 08:42:34;;;;;;;16.23;7.63;;;11.80;99.90;;;;;;5114805;28;20460;-70
2022/04/21 08:45:00;;;;;;;21.20;8.37;;;11.80;99.90;;;;;;5114878;28;20827;-70
2022/04/21 08:47:28;;;;;;;8.73;6.60;;;11.90;99.90;;;;;;5114648;28;20487;-70
2022/04/21 08:49:59;;;;;;;17.00;5.83;;;12.00;99.90;;;;;;5114409;28;20919;-70
2022/04/21 08:52:29;;;;;;;25.20;15.30;;;12.00;99.90;;;;;;5114260;28;20447;-70
2022/04/21 08:54:56;;;;;;;11.93;6.03;;;12.10;99.90;;;;;;5114419;28;20448;-70
2022/04/21 08:57:23;;;;;;;8.77;6.87;;;12.20;99.90;;;;;;5114390;28;20440;-70
2022/04/21 08:59:49;;;;;;;10.40;6.53;;;12.30;99.90;;;;;;5115197;28;20913;-70
2022/04/21 09:02:16;;;;;;;15.60;10.73;;;12.40;99.90;;;;;;5114292;28;20931;-71
2022/04/21 09:04:43;;;;;;;10.23;6.77;;;12.50;99.90;;;;;;5114323;28;20922;-71
2022/04/21 09:07:19;;;;;;;11.77;7.23;;;12.50;99.90;;;;;;5114233;28;20929;-70
2022/04/21 09:10:06;;;;;;;12.03;7.50;;;12.60;99.90;;;;;;5114662;28;20903;-71
2022/04/21 09:12:33;;;;;;;7.93;6.40;;;12.70;99.90;;;;;;5114387;28;20479;-70
2022/04/21 09:15:06;;;;;;;13.47;9.87;;;12.80;99.90;;;;;;5114801;28;20755;-69
2022/04/21 09:17:39;;;;;;;8.00;5.60;;;12.90;99.90;;;;;;5114941;28;20882;-72
2022/04/21 09:20:07;;;;;;;9.83;6.70;;;13.00;99.90;;;;;;5115253;28;20483;-70
2022/04/21 09:22:34;;;;;;;8.13;6.30;;;13.10;99.90;;;;;;5118792;28;20456;-70
2022/04/21 09:25:03;;;;;;;8.80;6.47;;;13.20;99.90;;;;;;5118350;28;20456;-70
2022/04/21 09:27:39;;;;;;;9.10;5.40;;;13.30;99.90;;;;;;5118437;28;20591;-71
2022/04/21 09:30:10;;;;;;;9.50;6.17;;;13.30;99.90;;;;;;5118058;28;20467;-70
2022/04/21 09:32:38;;;;;;;8.37;5.73;;;13.30;99.90;;;;;;5118536;28;20448;-70
2022/04/21 09:35:07;;;;;;;11.07;5.87;;;13.30;99.90;;;;;;5118321;28;20480;-70
2022/04/21 09:37:34;;;;;;;13.93;9.97;;;13.20;99.90;;;;;;5118390;28;20456;-70
2022/04/21 09:40:04;;;;;;;7.53;5.67;;;13.30;99.90;;;;;;5118769;28;20490;-70
2022/04/21 09:42:31;;;;;;;10.23;7.17;;;13.40;99.90;;;;;;5118487;28;20455;-70
2022/04/21 09:47:50;;;;;;;10.90;7.63;;;13.70;99.90;;;;;;5118428;28;20460;-70
2022/04/21 09:50:16;;;;;;;15.10;7.17;;;13.80;99.90;;;;;;5119019;28;20488;-71
2022/04/21 09:52:51;;;;;;;10.40;7.70;;;13.80;99.90;;;;;;5118406;28;20462;-71
2022/04/21 09:55:25;;;;;;;9.53;6.00;;;13.90;99.90;;;;;;5118381;28;20480;-72
2022/04/21 09:57:53;;;;;;;11.70;7.10;;;14.00;99.90;;;;;;5118449;28;20584;-69
2022/04/21 10:00:22;;;;;;;9.10;6.90;;;14.00;99.90;;;;;;5118050;28;20467;-71
2022/04/21 10:02:50;;;;;;;18.30;7.33;;;14.00;99.90;;;;;;5117813;28;20513;-71
2022/04/21 10:05:17;;;;;;;8.30;7.40;;;14.10;99.90;;;;;;5117825;28;20467;-71
2022/04/21 10:07:45;;;;;;;15.10;8.13;;;14.10;99.90;;;;;;5117192;28;21106;-71
2022/04/21 10:10:12;;;;;;;13.13;8.00;;;14.10;99.90;;;;;;5117359;28;20796;-70
2022/04/21 10:12:41;;;;;;;11.43;8.30;;;14.10;99.90;;;;;;5118244;28;20796;-71
2022/04/21 10:15:09;;;;;;;35.57;10.90;;;14.10;99.90;;;;;;5118091;28;20508;-70
2022/04/21 10:17:36;;;;;;;12.57;7.90;;;14.10;99.90;;;;;;5118310;28;20461;-71
2022/04/21 10:20:04;;;;;;;9.50;6.80;;;14.00;99.90;;;;;;5118712;28;20476;-71
2022/04/21 10:22:33;;;;;;;32.27;16.67;;;14.00;99.90;;;;;;5120431;28;20876;-71
2022/04/21 10:25:00;;;;;;;9.37;8.10;;;13.80;99.90;;;;;;5118117;28;20905;-71
2022/04/21 10:27:45;;;;;;;9.83;6.90;;;13.80;99.90;;;;;;5118109;28;20475;-71
2022/04/21 10:30:14;;;;;;;8.50;6.70;;;13.70;99.90;;;;;;5118197;28;20441;-72
2022/04/21 10:32:49;;;;;;;8.67;7.47;;;13.60;99.90;;;;;;5117390;28;20470;-72
2022/04/21 10:35:43;;;;;;;10.60;7.77;;;13.60;99.90;;;;;;5117628;28;20513;-71
2022/04/21 10:38:26;;;;;;;15.90;8.40;;;13.60;99.90;;;;;;5096501;28;20460;-71
2022/04/21 10:41:03;;;;;;;9.53;8.53;;;13.80;99.90;;;;;;5117045;28;20501;-72
2022/04/21 10:44:12;;;;;;;11.23;8.80;;;13.80;99.90;;;;;;5117344;28;20480;-71
2022/04/21 10:46:39;;;;;;;12.20;9.07;;;13.80;99.90;;;;;;5118842;28;20939;-72
2022/04/21 10:49:06;;;;;;;14.40;9.17;;;13.80;99.90;;;;;;5120145;28;20897;-72
2022/04/21 10:58:47;;;;;;;11.50;9.30;;;13.90;99.90;;;;;;5116986;28;20448;-71
2022/04/21 11:01:17;;;;;;;9.30;8.03;;;13.90;99.90;;;;;;5117274;28;20441;-71
2022/04/21 11:03:45;;;;;;;9.47;8.30;;;14.00;99.90;;;;;;5116793;28;20463;-71
2022/04/21 11:06:13;;;;;;;9.53;8.63;;;14.20;99.90;;;;;;5116680;28;20457;-71
2022/04/21 11:08:41;;;;;;;9.70;8.50;;;14.30;99.90;;;;;;5115778;28;20960;-71
2022/04/21 11:11:08;;;;;;;11.73;10.50;;;14.40;99.90;;;;;;5116392;28;20456;-71
2022/04/21 11:13:42;;;;;;;9.60;8.60;;;14.70;99.90;;;;;;5116654;28;20457;-71
2022/04/21 11:16:10;;;;;;;14.10;9.20;;;14.80;99.90;;;;;;5116471;28;20467;-70
2022/04/21 11:18:38;;;;;;;10.57;8.57;;;15.00;99.90;;;;;;5116841;28;20457;-70
2022/04/21 11:21:21;;;;;;;21.10;18.20;;;15.20;99.90;;;;;;5116126;28;20456;-72
2022/04/21 11:24:01;;;;;;;16.17;13.10;;;15.30;99.90;;;;;;5121000;28;20456;-70
2022/04/21 11:26:29;;;;;;;10.00;7.90;;;15.60;99.90;;;;;;5122406;28;20461;-71
2022/04/21 11:29:02;;;;;;;10.17;8.27;;;15.80;99.90;;;;;;5118652;28;20476;-71
2022/04/21 11:31:29;;;;;;;13.73;8.90;;;16.00;99.90;;;;;;5115753;28;20480;-71
2022/04/21 11:34:01;;;;;;;9.77;7.80;;;16.30;99.90;;;;;;5115584;28;20495;-72
2022/04/21 11:36:35;;;;;;;10.03;7.70;;;16.30;99.90;;;;;;5115750;28;20502;-70
2022/04/21 11:39:07;;;;;;;10.57;7.63;;;16.20;99.90;;;;;;5115918;28;20456;-70
2022/04/21 11:41:34;;;;;;;9.80;7.33;;;16.10;99.90;;;;;;5118513;28;20509;-71
2022/04/21 11:44:01;;;;;;;9.03;7.10;;;15.90;99.90;;;;;;5118244;28;20452;-71
2022/04/21 11:46:28;;;;;;;9.37;7.80;;;15.80;99.90;;;;;;5115853;28;20785;-72
2022/04/21 11:49:01;;;;;;;12.17;9.00;;;15.70;99.90;;;;;;5115776;28;20488;-71
2022/04/21 11:51:28;;;;;;;8.83;7.20;;;15.60;99.90;;;;;;5118400;28;20452;-71
2022/04/21 11:53:55;;;;;;;8.40;7.60;;;15.50;99.90;;;;;;5118676;28;20831;-71
2022/04/21 11:56:22;;;;;;;9.83;7.73;;;15.30;99.90;;;;;;5115536;28;20567;-71
2022/04/21 11:58:49;;;;;;;9.67;7.47;;;15.20;99.90;;;;;;5116264;28;20487;-71
2022/04/21 12:06:50;;;;;;;9.37;8.47;;;14.90;99.90;;;;;;5116065;28;20536;-71
2022/04/21 12:09:19;;;;;;;12.00;9.73;;;14.90;99.90;;;;;;5116167;28;20531;-71
2022/04/21 12:11:49;;;;;;;10.63;8.10;;;14.90;99.90;;;;;;5115537;28;20456;-71
2022/04/21 12:14:16;;;;;;;11.53;9.00;;;15.00;99.90;;;;;;5115932;28;20822;-72
2022/04/21 12:16:45;;;;;;;12.00;8.23;;;15.10;99.90;;;;;;5115657;28;20467;-72
2022/04/21 12:19:15;;;;;;;10.73;7.50;;;15.10;99.90;;;;;;5115556;28;20460;-72
2022/04/21 12:21:43;;;;;;;8.80;6.30;;;15.20;99.90;;;;;;5115650;28;20940;-70
2022/04/21 12:24:12;;;;;;;11.60;7.10;;;15.20;99.90;;;;;;5115698;28;20452;-71
2022/04/21 12:26:39;;;;;;;8.83;7.17;;;15.20;99.90;;;;;;5115099;28;20456;-72
2022/04/21 12:29:07;;;;;;;8.07;7.27;;;15.10;99.90;;;;;;5114942;28;20476;-71
2022/04/21 12:31:43;;;;;;;8.50;7.70;;;15.10;99.90;;;;;;5115556;28;20488;-71
2022/04/21 12:34:10;;;;;;;10.50;7.37;;;14.90;99.90;;;;;;5115495;28;20781;-72
2022/04/21 12:36:49;;;;;;;9.53;7.60;;;14.90;99.90;;;;;;5115467;28;20495;-71
2022/04/21 12:39:16;;;;;;;8.50;7.27;;;14.80;99.90;;;;;;5116103;28;20441;-71
2022/04/21 12:41:42;;;;;;;8.00;7.20;;;14.80;99.90;;;;;;5115006;28;20516;-70
2022/04/21 12:44:09;;;;;;;12.07;7.60;;;14.70;99.90;;;;;;5115412;28;20567;-71
2022/04/21 12:46:36;;;;;;;9.90;7.13;;;14.60;99.90;;;;;;5114975;28;20554;-71
2022/04/21 12:49:03;;;;;;;8.80;7.90;;;14.60;99.90;;;;;;5116429;28;20479;-72
2022/04/21 12:51:29;;;;;;;9.60;7.77;;;14.60;99.90;;;;;;5115319;28;20513;-71
2022/04/21 12:53:58;;;;;;;11.17;6.40;;;14.60;99.90;;;;;;5115156;28;20460;-71
2022/04/21 12:56:35;;;;;;;8.50;6.37;;;14.60;99.90;;;;;;5116865;28;20577;-71
2022/04/21 12:59:03;;;;;;;7.13;6.40;;;14.60;99.90;;;;;;5119256;28;21018;-71
2022/04/21 13:01:30;;;;;;;8.43;6.30;;;14.50;99.90;;;;;;5119299;28;20456;-71
2022/04/21 13:03:59;;;;;;;5.90;5.30;;;14.50;99.90;;;;;;5119852;28;20481;-70
2022/04/21 13:06:27;;;;;;;9.37;5.90;;;14.50;99.90;;;;;;5120236;28;20512;-71
2022/04/21 13:08:53;;;;;;;6.37;5.87;;;14.50;99.90;;;;;;5119875;28;20547;-70
2022/04/21 13:11:21;;;;;;;7.60;6.67;;;14.60;99.90;;;;;;5119602;28;20464;-71
2022/04/21 13:13:50;;;;;;;8.83;7.03;;;14.60;99.90;;;;;;5119402;28;20815;-71
2022/04/21 13:16:17;;;;;;;7.57;6.30;;;14.70;99.90;;;;;;5119304;28;20537;-73
2022/04/21 13:18:43;;;;;;;10.70;9.60;;;14.70;99.90;;;;;;5118772;28;20456;-70
2022/04/21 13:23:55;;;;;;;8.40;6.80;;;14.70;99.90;;;;;;5119353;28;20795;-72
2022/04/21 13:26:28;;;;;;;6.00;5.50;;;14.70;99.90;;;;;;5119529;28;20483;-71
2022/04/21 13:28:56;;;;;;;7.00;6.30;;;14.70;99.90;;;;;;5119432;28;20464;-71
2022/04/21 13:34:08;;;;;;;7.10;6.40;;;14.60;99.90;;;;;;5119130;28;20481;-71
2022/04/21 13:36:36;;;;;;;7.40;6.70;;;14.60;99.90;;;;;;5118930;28;20461;-71
2022/04/21 13:39:03;;;;;;;7.57;6.70;;;14.60;99.90;;;;;;5119056;28;20479;-71
2022/04/21 13:41:31;;;;;;;6.80;6.20;;;14.60;99.90;;;;;;5117889;28;20465;-72
2022/04/21 13:43:58;;;;;;;7.40;6.60;;;14.50;99.90;;;;;;5118782;28;20546;-71
2022/04/21 13:46:24;;;;;;;6.87;6.27;;;14.50;99.90;;;;;;5118579;28;20463;-71
2022/04/21 13:48:51;;;;;;;6.97;6.27;;;14.50;99.90;;;;;;5117970;28;20472;-71
2022/04/21 13:51:18;;;;;;;7.20;6.50;;;14.50;99.90;;;;;;5118996;28;20761;-70
2022/04/21 13:53:44;;;;;;;8.40;7.27;;;14.40;99.90;;;;;;5118244;28;20457;-70
2022/04/21 13:56:11;;;;;;;5.97;5.47;;;14.40;99.90;;;;;;5117705;28;20487;-71
2022/04/21 13:58:39;;;;;;;7.20;6.50;;;14.40;99.90;;;;;;5118308;28;20456;-72